sensor_id;sensor_type;location;lat;lon;timestamp;pressure;altitude;pressure_sealevel;temperature;humidity
76137;BME280;68622;53.128;17.966;2024-03-29T00:01:37;99442.70;;;10.12;56.71
76137;BME280;68622;53.128;17.966;2024-03-29T00:04:03;99439.35;;;10.11;56.94
76137;BME280;68622;53.128;17.966;2024-03-29T00:06:30;99441.23;;;10.08;57.32
76137;BME280;68622;53.128;17.966;2024-03-29T00:08:56;99451.23;;;10.00;57.75
76137;BME280;68622;53.128;17.966;2024-03-29T00:11:22;99458.60;;;9.91;58.01
76137;BME280;68622;53.128;17.966;2024-03-29T00:13:49;99464.84;;;9.93;57.95
76137;BME280;68622;53.128;17.966;2024-03-29T00:16:15;99476.17;;;9.92;57.55
76137;BME280;68622;53.128;17.966;2024-03-29T00:18:42;99480.21;;;9.72;58.55
76137;BME280;68622;53.128;17.966;2024-03-29T00:21:08;99480.20;;;9.54;59.12
76137;BME280;68622;53.128;17.966;2024-03-29T00:23:35;99488.53;;;9.65;58.70
76137;BME280;68622;53.128;17.966;2024-03-29T00:26:01;99492.14;;;9.61;58.66
76137;BME280;68622;53.128;17.966;2024-03-29T00:28:28;99500.21;;;9.64;58.51
76137;BME280;68622;53.128;17.966;2024-03-29T00:30:54;99510.40;;;9.51;59.28
76137;BME280;68622;53.128;17.966;2024-03-29T00:33:21;99518.40;;;9.58;58.89
76137;BME280;68622;53.128;17.966;2024-03-29T00:35:47;99516.99;;;9.43;59.51
76137;BME280;68622;53.128;17.966;2024-03-29T00:38:14;99522.41;;;9.49;59.13
76137;BME280;68622;53.128;17.966;2024-03-29T00:40:41;99525.27;;;9.41;59.34
76137;BME280;68622;53.128;17.966;2024-03-29T00:43:07;99535.38;;;9.46;58.58
76137;BME280;68622;53.128;17.966;2024-03-29T00:45:34;99545.83;;;9.40;59.20
76137;BME280;68622;53.128;17.966;2024-03-29T00:48:01;99544.79;;;9.37;59.25
76137;BME280;68622;53.128;17.966;2024-03-29T00:50:27;99548.93;;;9.37;58.92
76137;BME280;68622;53.128;17.966;2024-03-29T00:52:54;99554.41;;;9.34;58.95
76137;BME280;68622;53.128;17.966;2024-03-29T00:55:20;99559.98;;;9.34;59.05
76137;BME280;68622;53.128;17.966;2024-03-29T00:57:46;99562.24;;;9.32;58.54
76137;BME280;68622;53.128;17.966;2024-03-29T01:00:13;99565.15;;;9.27;58.88
76137;BME280;68622;53.128;17.966;2024-03-29T01:02:41;99564.99;;;9.24;58.78
76137;BME280;68622;53.128;17.966;2024-03-29T01:05:07;99576.98;;;9.18;58.98
76137;BME280;68622;53.128;17.966;2024-03-29T01:07:34;99581.73;;;9.08;60.15
76137;BME280;68622;53.128;17.966;2024-03-29T01:10:01;99587.39;;;9.07;59.48
76137;BME280;68622;53.128;17.966;2024-03-29T01:12:27;99598.20;;;9.04;59.80
76137;BME280;68622;53.128;17.966;2024-03-29T01:14:54;99608.31;;;9.04;59.46
76137;BME280;68622;53.128;17.966;2024-03-29T01:17:20;99610.27;;;8.93;60.63
76137;BME280;68622;53.128;17.966;2024-03-29T01:19:47;99619.20;;;8.83;61.35
76137;BME280;68622;53.128;17.966;2024-03-29T01:22:13;99622.30;;;8.75;61.52
76137;BME280;68622;53.128;17.966;2024-03-29T01:24:40;99623.15;;;8.83;61.04
76137;BME280;68622;53.128;17.966;2024-03-29T01:27:06;99630.70;;;8.79;61.26
76137;BME280;68622;53.128;17.966;2024-03-29T01:29:33;99644.28;;;8.78;61.11
76137;BME280;68622;53.128;17.966;2024-03-29T01:31:59;99648.84;;;8.73;60.96
76137;BME280;68622;53.128;17.966;2024-03-29T01:34:26;99656.30;;;8.73;61.08
76137;BME280;68622;53.128;17.966;2024-03-29T01:36:52;99657.25;;;8.74;60.66
76137;BME280;68622;53.128;17.966;2024-03-29T01:39:19;99659.02;;;8.74;60.77
76137;BME280;68622;53.128;17.966;2024-03-29T01:41:49;99671.08;;;8.65;61.74
76137;BME280;68622;53.128;17.966;2024-03-29T01:44:15;99681.52;;;8.54;62.17
76137;BME280;68622;53.128;17.966;2024-03-29T01:46:42;99692.23;;;8.45;62.61
76137;BME280;68622;53.128;17.966;2024-03-29T01:49:10;99699.98;;;8.52;62.37
76137;BME280;68622;53.128;17.966;2024-03-29T01:51:38;99706.38;;;8.56;61.85
76137;BME280;68622;53.128;17.966;2024-03-29T01:54:08;99710.08;;;8.54;62.11
76137;BME280;68622;53.128;17.966;2024-03-29T01:56:36;99713.30;;;8.53;61.89
76137;BME280;68622;53.128;17.966;2024-03-29T01:59:04;99716.46;;;8.54;61.61
76137;BME280;68622;53.128;17.966;2024-03-29T02:01:31;99722.08;;;8.47;62.05
76137;BME280;68622;53.128;17.966;2024-03-29T02:03:59;99725.50;;;8.43;62.20
76137;BME280;68622;53.128;17.966;2024-03-29T02:06:26;99733.27;;;8.43;61.69
76137;BME280;68622;53.128;17.966;2024-03-29T02:08:53;99735.80;;;8.41;61.43
76137;BME280;68622;53.128;17.966;2024-03-29T02:11:20;99737.39;;;8.30;62.35
76137;BME280;68622;53.128;17.966;2024-03-29T02:13:48;99744.15;;;8.31;62.28
76137;BME280;68622;53.128;17.966;2024-03-29T02:16:16;99744.07;;;8.25;62.77
76137;BME280;68622;53.128;17.966;2024-03-29T02:18:42;99752.29;;;8.24;63.04
76137;BME280;68622;53.128;17.966;2024-03-29T02:21:09;99753.61;;;8.23;63.06
76137;BME280;68622;53.128;17.966;2024-03-29T02:23:37;99755.69;;;8.24;62.97
76137;BME280;68622;53.128;17.966;2024-03-29T02:26:06;99760.17;;;8.32;62.51
76137;BME280;68622;53.128;17.966;2024-03-29T02:28:33;99762.83;;;8.35;62.09
76137;BME280;68622;53.128;17.966;2024-03-29T02:30:59;99764.49;;;8.38;61.91
76137;BME280;68622;53.128;17.966;2024-03-29T02:33:26;99768.78;;;8.34;62.24
76137;BME280;68622;53.128;17.966;2024-03-29T02:35:52;99770.83;;;8.32;61.93
76137;BME280;68622;53.128;17.966;2024-03-29T02:38:19;99769.38;;;8.26;62.40
76137;BME280;68622;53.128;17.966;2024-03-29T02:40:46;99770.83;;;8.20;62.59
76137;BME280;68622;53.128;17.966;2024-03-29T02:43:12;99776.10;;;8.19;62.05
76137;BME280;68622;53.128;17.966;2024-03-29T02:45:39;99778.08;;;8.16;61.83
76137;BME280;68622;53.128;17.966;2024-03-29T02:48:06;99779.48;;;8.10;62.48
76137;BME280;68622;53.128;17.966;2024-03-29T02:50:32;99784.24;;;7.96;63.54
76137;BME280;68622;53.128;17.966;2024-03-29T02:52:59;99787.13;;;7.96;63.17
76137;BME280;68622;53.128;17.966;2024-03-29T02:55:25;99788.30;;;7.99;63.09
76137;BME280;68622;53.128;17.966;2024-03-29T02:57:52;99789.64;;;8.01;63.06
76137;BME280;68622;53.128;17.966;2024-03-29T03:00:18;99790.56;;;8.01;63.12
76137;BME280;68622;53.128;17.966;2024-03-29T03:02:45;99788.91;;;8.04;62.58
76137;BME280;68622;53.128;17.966;2024-03-29T03:05:11;99789.65;;;8.03;62.60
76137;BME280;68622;53.128;17.966;2024-03-29T03:07:38;99794.79;;;8.05;62.40
76137;BME280;68622;53.128;17.966;2024-03-29T03:10:23;99801.89;;;8.03;62.60
76137;BME280;68622;53.128;17.966;2024-03-29T03:13:08;99799.83;;;8.05;61.91
76137;BME280;68622;53.128;17.966;2024-03-29T03:15:34;99804.55;;;8.04;61.75
76137;BME280;68622;53.128;17.966;2024-03-29T03:18:01;99803.15;;;7.93;63.07
76137;BME280;68622;53.128;17.966;2024-03-29T03:20:27;99804.41;;;7.98;62.36
76137;BME280;68622;53.128;17.966;2024-03-29T03:22:57;99806.81;;;7.98;62.33
76137;BME280;68622;53.128;17.966;2024-03-29T03:25:27;99815.05;;;7.95;62.93
76137;BME280;68622;53.128;17.966;2024-03-29T03:27:53;99815.98;;;7.98;62.14
76137;BME280;68622;53.128;17.966;2024-03-29T03:30:20;99815.02;;;8.01;62.12
76137;BME280;68622;53.128;17.966;2024-03-29T03:32:48;99813.24;;;8.00;62.74
76137;BME280;68622;53.128;17.966;2024-03-29T03:35:15;99811.63;;;7.97;62.97
76137;BME280;68622;53.128;17.966;2024-03-29T03:37:41;99810.12;;;8.00;62.85
76137;BME280;68622;53.128;17.966;2024-03-29T03:40:08;99811.13;;;8.00;62.67
76137;BME280;68622;53.128;17.966;2024-03-29T03:42:35;99818.27;;;7.89;63.50
76137;BME280;68622;53.128;17.966;2024-03-29T03:45:01;99823.09;;;7.83;63.58
76137;BME280;68622;53.128;17.966;2024-03-29T03:47:28;99823.33;;;7.81;63.67
76137;BME280;68622;53.128;17.966;2024-03-29T03:49:54;99819.95;;;7.87;62.79
76137;BME280;68622;53.128;17.966;2024-03-29T03:52:20;99819.92;;;7.86;62.54
76137;BME280;68622;53.128;17.966;2024-03-29T03:54:47;99827.73;;;7.79;63.41
76137;BME280;68622;53.128;17.966;2024-03-29T03:57:13;99833.02;;;7.71;63.90
76137;BME280;68622;53.128;17.966;2024-03-29T03:59:40;99832.55;;;7.76;63.77
76137;BME280;68622;53.128;17.966;2024-03-29T04:02:06;99828.46;;;7.73;63.74
76137;BME280;68622;53.128;17.966;2024-03-29T04:04:33;99827.14;;;7.71;63.76
76137;BME280;68622;53.128;17.966;2024-03-29T04:06:59;99830.45;;;7.65;64.25
76137;BME280;68622;53.128;17.966;2024-03-29T04:09:26;99831.69;;;7.69;63.77
76137;BME280;68622;53.128;17.966;2024-03-29T04:11:52;99839.02;;;7.66;64.00
76137;BME280;68622;53.128;17.966;2024-03-29T04:14:19;99840.63;;;7.61;63.99
76137;BME280;68622;53.128;17.966;2024-03-29T04:16:46;99848.73;;;7.61;63.36
76137;BME280;68622;53.128;17.966;2024-03-29T04:19:12;99846.38;;;7.58;63.34
76137;BME280;68622;53.128;17.966;2024-03-29T04:21:39;99849.56;;;7.55;63.64
76137;BME280;68622;53.128;17.966;2024-03-29T04:24:06;99849.98;;;7.55;63.43
76137;BME280;68622;53.128;17.966;2024-03-29T04:26:36;99845.32;;;7.59;63.51
76137;BME280;68622;53.128;17.966;2024-03-29T04:29:03;99838.83;;;7.58;63.78
76137;BME280;68622;53.128;17.966;2024-03-29T04:31:30;99847.11;;;7.58;64.12
76137;BME280;68622;53.128;17.966;2024-03-29T04:33:56;99843.55;;;7.53;64.55
76137;BME280;68622;53.128;17.966;2024-03-29T04:36:23;99852.98;;;7.58;64.28
76137;BME280;68622;53.128;17.966;2024-03-29T04:38:50;99862.38;;;7.51;64.65
76137;BME280;68622;53.128;17.966;2024-03-29T04:41:17;99863.82;;;7.58;64.20
76137;BME280;68622;53.128;17.966;2024-03-29T04:43:43;99869.11;;;7.57;64.52
76137;BME280;68622;53.128;17.966;2024-03-29T04:46:12;99871.71;;;7.55;64.51
76137;BME280;68622;53.128;17.966;2024-03-29T04:48:39;99873.02;;;7.52;64.68
76137;BME280;68622;53.128;17.966;2024-03-29T04:51:08;99869.48;;;7.51;64.68
76137;BME280;68622;53.128;17.966;2024-03-29T04:53:36;99875.70;;;7.47;65.12
76137;BME280;68622;53.128;17.966;2024-03-29T04:56:04;99878.09;;;7.47;64.81
76137;BME280;68622;53.128;17.966;2024-03-29T04:58:31;99878.67;;;7.46;65.24
76137;BME280;68622;53.128;17.966;2024-03-29T05:00:58;99880.98;;;7.59;64.55
76137;BME280;68622;53.128;17.966;2024-03-29T05:03:25;99881.97;;;7.68;64.29
76137;BME280;68622;53.128;17.966;2024-03-29T05:05:52;99889.59;;;7.73;64.13
76137;BME280;68622;53.128;17.966;2024-03-29T05:08:20;99884.48;;;7.74;63.97
76137;BME280;68622;53.128;17.966;2024-03-29T05:10:51;99872.84;;;7.73;64.42
76137;BME280;68622;53.128;17.966;2024-03-29T05:13:18;99870.53;;;7.76;64.25
76137;BME280;68622;53.128;17.966;2024-03-29T05:15:46;99884.33;;;7.83;63.67
76137;BME280;68622;53.128;17.966;2024-03-29T05:18:13;99892.50;;;7.85;63.86
76137;BME280;68622;53.128;17.966;2024-03-29T05:20:40;99895.61;;;7.88;63.80
76137;BME280;68622;53.128;17.966;2024-03-29T05:23:08;99884.08;;;7.92;63.90
76137;BME280;68622;53.128;17.966;2024-03-29T05:25:35;99870.08;;;7.96;63.94
76137;BME280;68622;53.128;17.966;2024-03-29T05:28:01;99866.75;;;8.00;63.79
76137;BME280;68622;53.128;17.966;2024-03-29T05:30:29;99871.52;;;8.12;63.34
76137;BME280;68622;53.128;17.966;2024-03-29T05:32:56;99872.95;;;8.19;63.39
76137;BME280;68622;53.128;17.966;2024-03-29T05:35:22;99875.23;;;8.26;63.40
76137;BME280;68622;53.128;17.966;2024-03-29T05:37:48;99880.79;;;8.39;63.04
76137;BME280;68622;53.128;17.966;2024-03-29T05:40:19;99886.40;;;8.33;63.21
76137;BME280;68622;53.128;17.966;2024-03-29T05:42:45;99886.96;;;8.55;62.76
76137;BME280;68622;53.128;17.966;2024-03-29T05:45:26;99893.75;;;8.69;62.18
76137;BME280;68622;53.128;17.966;2024-03-29T05:47:53;99902.16;;;8.79;61.92
76137;BME280;68622;53.128;17.966;2024-03-29T05:50:21;99898.95;;;8.89;61.80
76137;BME280;68622;53.128;17.966;2024-03-29T05:52:50;99907.55;;;9.04;61.53
76137;BME280;68622;53.128;17.966;2024-03-29T05:55:18;99917.34;;;9.09;61.37
76137;BME280;68622;53.128;17.966;2024-03-29T05:57:44;99922.39;;;9.08;61.31
76137;BME280;68622;53.128;17.966;2024-03-29T06:00:12;99919.41;;;9.28;60.90
76137;BME280;68622;53.128;17.966;2024-03-29T06:02:43;99917.65;;;9.46;60.51
76137;BME280;68622;53.128;17.966;2024-03-29T06:05:11;99924.45;;;9.55;60.38
76137;BME280;68622;53.128;17.966;2024-03-29T06:07:38;99926.29;;;9.60;60.18
76137;BME280;68622;53.128;17.966;2024-03-29T06:10:05;99928.36;;;9.68;59.79
76137;BME280;68622;53.128;17.966;2024-03-29T06:12:34;99937.00;;;9.70;59.77
76137;BME280;68622;53.128;17.966;2024-03-29T06:15:02;99937.62;;;9.89;59.64
76137;BME280;68622;53.128;17.966;2024-03-29T06:17:47;99941.02;;;10.11;59.16
76137;BME280;68622;53.128;17.966;2024-03-29T06:20:14;99927.91;;;10.17;59.04
76137;BME280;68622;53.128;17.966;2024-03-29T06:22:40;99921.91;;;10.27;58.63
76137;BME280;68622;53.128;17.966;2024-03-29T06:25:07;99932.82;;;10.38;58.33
76137;BME280;68622;53.128;17.966;2024-03-29T06:27:36;99937.14;;;10.49;58.10
76137;BME280;68622;53.128;17.966;2024-03-29T06:30:06;99939.49;;;10.56;57.86
76137;BME280;68622;53.128;17.966;2024-03-29T06:32:34;99939.36;;;10.72;57.79
76137;BME280;68622;53.128;17.966;2024-03-29T06:35:01;99942.27;;;10.78;56.96
76137;BME280;68622;53.128;17.966;2024-03-29T06:37:29;99949.71;;;10.55;56.82
76137;BME280;68622;53.128;17.966;2024-03-29T06:39:55;99946.02;;;10.82;56.72
76137;BME280;68622;53.128;17.966;2024-03-29T06:42:23;99952.08;;;10.85;56.67
76137;BME280;68622;53.128;17.966;2024-03-29T06:44:49;99951.20;;;11.09;56.27
76137;BME280;68622;53.128;17.966;2024-03-29T06:47:16;99942.56;;;11.22;55.59
76137;BME280;68622;53.128;17.966;2024-03-29T06:49:42;99931.33;;;11.31;55.03
76137;BME280;68622;53.128;17.966;2024-03-29T06:52:09;99927.27;;;11.52;55.34
76137;BME280;68622;53.128;17.966;2024-03-29T06:54:36;99923.75;;;11.69;54.55
76137;BME280;68622;53.128;17.966;2024-03-29T06:57:03;99917.50;;;11.71;53.99
76137;BME280;68622;53.128;17.966;2024-03-29T06:59:30;99913.23;;;11.96;53.98
76137;BME280;68622;53.128;17.966;2024-03-29T07:01:57;99907.61;;;12.16;54.74
76137;BME280;68622;53.128;17.966;2024-03-29T07:04:24;99901.05;;;12.22;53.62
76137;BME280;68622;53.128;17.966;2024-03-29T07:06:51;99900.94;;;12.05;52.42
76137;BME280;68622;53.128;17.966;2024-03-29T07:09:19;99904.73;;;12.22;52.52
76137;BME280;68622;53.128;17.966;2024-03-29T07:11:46;99912.91;;;12.07;52.11
76137;BME280;68622;53.128;17.966;2024-03-29T07:14:16;99920.65;;;12.38;53.01
76137;BME280;68622;53.128;17.966;2024-03-29T07:16:44;99934.09;;;12.57;53.09
76137;BME280;68622;53.128;17.966;2024-03-29T07:19:12;99942.54;;;12.40;51.93
76137;BME280;68622;53.128;17.966;2024-03-29T07:21:45;99939.85;;;12.71;52.15
76137;BME280;68622;53.128;17.966;2024-03-29T07:24:12;99941.27;;;12.88;52.01
76137;BME280;68622;53.128;17.966;2024-03-29T07:26:39;99942.14;;;12.99;51.14
76137;BME280;68622;53.128;17.966;2024-03-29T07:29:06;99950.77;;;13.12;51.60
76137;BME280;68622;53.128;17.966;2024-03-29T07:31:33;99954.95;;;13.17;50.44
76137;BME280;68622;53.128;17.966;2024-03-29T07:34:00;99958.34;;;13.29;50.63
76137;BME280;68622;53.128;17.966;2024-03-29T07:36:27;99962.79;;;13.06;49.91
76137;BME280;68622;53.128;17.966;2024-03-29T07:39:00;99964.15;;;13.19;49.16
76137;BME280;68622;53.128;17.966;2024-03-29T07:41:27;99969.84;;;13.26;49.76
76137;BME280;68622;53.128;17.966;2024-03-29T07:43:56;99974.35;;;13.39;49.51
76137;BME280;68622;53.128;17.966;2024-03-29T07:46:29;99976.39;;;13.48;49.53
76137;BME280;68622;53.128;17.966;2024-03-29T07:48:56;99979.63;;;13.27;48.95
76137;BME280;68622;53.128;17.966;2024-03-29T07:51:23;99983.83;;;13.56;48.81
76137;BME280;68622;53.128;17.966;2024-03-29T07:53:49;99984.08;;;13.63;48.22
76137;BME280;68622;53.128;17.966;2024-03-29T07:56:16;99982.55;;;13.69;47.93
76137;BME280;68622;53.128;17.966;2024-03-29T07:58:43;99980.71;;;13.79;48.23
76137;BME280;68622;53.128;17.966;2024-03-29T08:01:10;99984.10;;;13.82;47.68
76137;BME280;68622;53.128;17.966;2024-03-29T08:03:36;99983.44;;;13.94;48.16
76137;BME280;68622;53.128;17.966;2024-03-29T08:06:03;99977.25;;;13.92;47.87
76137;BME280;68622;53.128;17.966;2024-03-29T08:08:33;99985.50;;;13.62;47.57
76137;BME280;68622;53.128;17.966;2024-03-29T08:11:00;99985.73;;;14.01;47.77
76137;BME280;68622;53.128;17.966;2024-03-29T08:13:27;99983.08;;;14.15;47.76
76137;BME280;68622;53.128;17.966;2024-03-29T08:15:58;99978.98;;;14.26;47.74
76137;BME280;68622;53.128;17.966;2024-03-29T08:18:26;99980.65;;;14.27;46.83
76137;BME280;68622;53.128;17.966;2024-03-29T08:20:53;99982.23;;;14.43;47.34
76137;BME280;68622;53.128;17.966;2024-03-29T08:23:22;99990.35;;;14.38;46.85
76137;BME280;68622;53.128;17.966;2024-03-29T08:25:48;100000.83;;;14.20;46.11
76137;BME280;68622;53.128;17.966;2024-03-29T08:28:15;100007.29;;;14.44;46.28
76137;BME280;68622;53.128;17.966;2024-03-29T08:30:41;100013.51;;;14.62;46.54
76137;BME280;68622;53.128;17.966;2024-03-29T08:33:08;100006.61;;;14.44;45.72
76137;BME280;68622;53.128;17.966;2024-03-29T08:35:34;100007.84;;;14.58;46.03
76137;BME280;68622;53.128;17.966;2024-03-29T08:38:01;100010.95;;;14.59;46.27
76137;BME280;68622;53.128;17.966;2024-03-29T08:40:29;100009.73;;;14.74;45.78
76137;BME280;68622;53.128;17.966;2024-03-29T08:42:57;100001.92;;;14.82;45.48
76137;BME280;68622;53.128;17.966;2024-03-29T08:45:24;100006.28;;;15.03;45.81
76137;BME280;68622;53.128;17.966;2024-03-29T08:47:50;100015.05;;;15.23;45.72
76137;BME280;68622;53.128;17.966;2024-03-29T08:50:17;100012.55;;;15.40;45.78
76137;BME280;68622;53.128;17.966;2024-03-29T08:52:44;100017.13;;;15.45;45.06
76137;BME280;68622;53.128;17.966;2024-03-29T08:55:11;100019.83;;;15.19;44.66
76137;BME280;68622;53.128;17.966;2024-03-29T08:57:37;100019.59;;;15.31;44.72
76137;BME280;68622;53.128;17.966;2024-03-29T09:00:04;100019.40;;;15.29;44.36
76137;BME280;68622;53.128;17.966;2024-03-29T09:02:32;100025.24;;;15.05;44.00
76137;BME280;68622;53.128;17.966;2024-03-29T09:05:00;100031.59;;;14.94;44.17
76137;BME280;68622;53.128;17.966;2024-03-29T09:07:27;100031.42;;;15.15;44.67
76137;BME280;68622;53.128;17.966;2024-03-29T09:09:53;100028.70;;;15.38;44.89
76137;BME280;68622;53.128;17.966;2024-03-29T09:12:20;100029.11;;;15.43;44.38
76137;BME280;68622;53.128;17.966;2024-03-29T09:14:46;100030.91;;;15.31;43.66
76137;BME280;68622;53.128;17.966;2024-03-29T09:17:13;100032.89;;;14.88;43.96
76137;BME280;68622;53.128;17.966;2024-03-29T09:19:39;100036.36;;;14.85;43.95
76137;BME280;68622;53.128;17.966;2024-03-29T09:22:06;100037.15;;;15.40;44.03
76137;BME280;68622;53.128;17.966;2024-03-29T09:24:33;100035.77;;;15.12;43.19
76137;BME280;68622;53.128;17.966;2024-03-29T09:27:00;100035.15;;;15.30;43.19
76137;BME280;68622;53.128;17.966;2024-03-29T09:29:27;100036.84;;;15.52;43.27
76137;BME280;68622;53.128;17.966;2024-03-29T09:31:54;100039.61;;;15.41;42.85
76137;BME280;68622;53.128;17.966;2024-03-29T09:34:20;100040.18;;;15.28;42.66
76137;BME280;68622;53.128;17.966;2024-03-29T09:36:47;100033.95;;;15.48;43.28
76137;BME280;68622;53.128;17.966;2024-03-29T09:39:13;100036.80;;;15.64;43.01
76137;BME280;68622;53.128;17.966;2024-03-29T09:41:41;100052.02;;;15.73;43.09
76137;BME280;68622;53.128;17.966;2024-03-29T09:44:11;100058.27;;;15.59;42.71
76137;BME280;68622;53.128;17.966;2024-03-29T09:46:38;100065.33;;;15.85;42.74
76137;BME280;68622;53.128;17.966;2024-03-29T09:49:08;100070.63;;;15.48;42.10
76137;BME280;68622;53.128;17.966;2024-03-29T09:51:35;100066.48;;;15.77;42.32
76137;BME280;68622;53.128;17.966;2024-03-29T09:54:03;100060.36;;;15.71;42.32
76137;BME280;68622;53.128;17.966;2024-03-29T09:56:35;100056.71;;;16.03;42.25
76137;BME280;68622;53.128;17.966;2024-03-29T09:59:02;100059.73;;;16.18;41.88
76137;BME280;68622;53.128;17.966;2024-03-29T10:01:30;100053.71;;;16.25;41.50
76137;BME280;68622;53.128;17.966;2024-03-29T10:03:59;100061.73;;;16.40;41.69
76137;BME280;68622;53.128;17.966;2024-03-29T10:06:28;100067.55;;;16.36;41.25
76137;BME280;68622;53.128;17.966;2024-03-29T10:08:57;100068.43;;;16.15;40.54
76137;BME280;68622;53.128;17.966;2024-03-29T10:11:24;100065.86;;;16.42;41.26
76137;BME280;68622;53.128;17.966;2024-03-29T10:13:50;100053.98;;;16.34;41.21
76137;BME280;68622;53.128;17.966;2024-03-29T10:16:20;100052.35;;;16.45;41.40
76137;BME280;68622;53.128;17.966;2024-03-29T10:18:58;100058.75;;;16.36;41.33
76137;BME280;68622;53.128;17.966;2024-03-29T10:21:25;100068.79;;;16.29;41.40
76137;BME280;68622;53.128;17.966;2024-03-29T10:23:54;100069.64;;;16.10;41.35
76137;BME280;68622;53.128;17.966;2024-03-29T10:26:21;100064.45;;;16.30;41.18
76137;BME280;68622;53.128;17.966;2024-03-29T10:28:48;100065.73;;;16.50;41.27
76137;BME280;68622;53.128;17.966;2024-03-29T10:31:15;100064.14;;;16.61;41.51
76137;BME280;68622;53.128;17.966;2024-03-29T10:33:44;100060.53;;;16.78;41.57
76137;BME280;68622;53.128;17.966;2024-03-29T10:36:11;100053.08;;;16.50;40.52
76137;BME280;68622;53.128;17.966;2024-03-29T10:38:40;100052.59;;;16.57;40.89
76137;BME280;68622;53.128;17.966;2024-03-29T10:41:07;100060.39;;;16.58;40.11
76137;BME280;68622;53.128;17.966;2024-03-29T10:43:34;100066.46;;;16.72;40.72
76137;BME280;68622;53.128;17.966;2024-03-29T10:46:01;100068.61;;;16.73;40.28
76137;BME280;68622;53.128;17.966;2024-03-29T10:48:27;100068.18;;;17.02;40.39
76137;BME280;68622;53.128;17.966;2024-03-29T10:50:58;100059.65;;;17.17;39.65
76137;BME280;68622;53.128;17.966;2024-03-29T10:53:26;100056.46;;;17.06;38.97
76137;BME280;68622;53.128;17.966;2024-03-29T10:55:58;100050.45;;;17.39;39.46
76137;BME280;68622;53.128;17.966;2024-03-29T10:58:34;100050.54;;;17.22;38.36
76137;BME280;68622;53.128;17.966;2024-03-29T11:01:03;100050.93;;;17.29;38.09
76137;BME280;68622;53.128;17.966;2024-03-29T11:03:41;100046.14;;;17.26;37.92
76137;BME280;68622;53.128;17.966;2024-03-29T11:06:12;100045.89;;;17.49;38.04
76137;BME280;68622;53.128;17.966;2024-03-29T11:08:40;100042.57;;;17.38;37.67
76137;BME280;68622;53.128;17.966;2024-03-29T11:11:12;100050.19;;;17.48;37.46
76137;BME280;68622;53.128;17.966;2024-03-29T11:13:58;100048.73;;;17.54;37.31
76137;BME280;68622;53.128;17.966;2024-03-29T11:16:29;100042.84;;;17.66;37.40
76137;BME280;68622;53.128;17.966;2024-03-29T11:18:56;100041.98;;;17.41;37.33
76137;BME280;68622;53.128;17.966;2024-03-29T11:21:24;100031.50;;;17.45;36.42
76137;BME280;68622;53.128;17.966;2024-03-29T11:23:54;100031.00;;;17.39;37.16
76137;BME280;68622;53.128;17.966;2024-03-29T11:26:24;100028.95;;;17.50;36.86
76137;BME280;68622;53.128;17.966;2024-03-29T11:28:52;100022.88;;;17.66;37.13
76137;BME280;68622;53.128;17.966;2024-03-29T11:31:22;100018.31;;;17.70;36.17
76137;BME280;68622;53.128;17.966;2024-03-29T11:33:49;100016.92;;;17.77;36.52
76137;BME280;68622;53.128;17.966;2024-03-29T11:38:48;100018.86;;;17.40;35.67
76137;BME280;68622;53.128;17.966;2024-03-29T11:41:17;100016.44;;;17.64;36.64
76137;BME280;68622;53.128;17.966;2024-03-29T11:43:45;100025.53;;;17.65;36.44
76137;BME280;68622;53.128;17.966;2024-03-29T11:46:13;100028.16;;;17.71;35.30
76137;BME280;68622;53.128;17.966;2024-03-29T11:48:40;100029.61;;;17.59;35.15
76137;BME280;68622;53.128;17.966;2024-03-29T11:51:13;100028.40;;;17.54;34.89
76137;BME280;68622;53.128;17.966;2024-03-29T11:53:41;100022.50;;;17.51;34.74
76137;BME280;68622;53.128;17.966;2024-03-29T11:56:09;100023.67;;;17.50;35.08
76137;BME280;68622;53.128;17.966;2024-03-29T11:58:40;100026.08;;;17.60;34.96
76137;BME280;68622;53.128;17.966;2024-03-29T12:01:09;100024.30;;;17.96;35.43
76137;BME280;68622;53.128;17.966;2024-03-29T12:03:41;100027.95;;;18.04;34.44
76137;BME280;68622;53.128;17.966;2024-03-29T12:06:08;100032.27;;;18.18;34.78
76137;BME280;68622;53.128;17.966;2024-03-29T12:08:38;100031.88;;;18.32;33.76
76137;BME280;68622;53.128;17.966;2024-03-29T12:11:05;100026.16;;;18.33;33.81
76137;BME280;68622;53.128;17.966;2024-03-29T12:13:32;100027.92;;;18.62;34.16
76137;BME280;68622;53.128;17.966;2024-03-29T12:16:00;100022.13;;;18.69;33.39
76137;BME280;68622;53.128;17.966;2024-03-29T12:18:27;100024.52;;;18.79;33.59
76137;BME280;68622;53.128;17.966;2024-03-29T12:21:03;100025.36;;;18.78;32.98
76137;BME280;68622;53.128;17.966;2024-03-29T12:23:29;100030.05;;;18.89;32.97
76137;BME280;68622;53.128;17.966;2024-03-29T12:25:58;100033.13;;;18.91;32.80
76137;BME280;68622;53.128;17.966;2024-03-29T12:28:25;100033.32;;;19.10;33.28
76137;BME280;68622;53.128;17.966;2024-03-29T12:30:52;100020.80;;;19.31;33.74
76137;BME280;68622;53.128;17.966;2024-03-29T12:33:51;100017.92;;;19.23;31.89
76137;BME280;68622;53.128;17.966;2024-03-29T12:36:18;100023.30;;;19.41;32.66
76137;BME280;68622;53.128;17.966;2024-03-29T12:38:46;100024.89;;;19.36;32.55
76137;BME280;68622;53.128;17.966;2024-03-29T12:41:18;100023.61;;;19.54;32.64
76137;BME280;68622;53.128;17.966;2024-03-29T12:43:45;100022.95;;;19.48;31.77
76137;BME280;68622;53.128;17.966;2024-03-29T12:46:13;100018.66;;;19.45;31.84
76137;BME280;68622;53.128;17.966;2024-03-29T12:48:39;100012.80;;;19.74;31.84
76137;BME280;68622;53.128;17.966;2024-03-29T12:51:06;100009.44;;;19.70;31.64
76137;BME280;68622;53.128;17.966;2024-03-29T12:53:33;100007.92;;;19.66;31.55
76137;BME280;68622;53.128;17.966;2024-03-29T12:55:59;99996.70;;;19.84;31.74